Time;durP1;ratioP1;P1;durP2;ratioP2;P2;SDS_P1;SDS_P2;PMS_P1;PMS_P2;Temp;Humidity;BMP_temperature;BMP_pressure;BME280_temperature;BME280_humidity;BME280_pressure;Samples;Min_cycle;Max_cycle;Signal;HPM_P1;HPM_P2
2022/06/16 00:00:15;;;;;;;4.07;3.30;;;22.50;75.20;;;;;;5001913;28;20021;-45
2022/06/16 00:02:43;;;;;;;8.23;3.72;;;22.50;75.40;;;;;;5003154;28;20081;-48
2022/06/16 00:05:12;;;;;;;5.03;4.22;;;22.50;75.80;;;;;;5006219;28;20438;-49
2022/06/16 00:07:38;;;;;;;8.80;3.85;;;22.50;76.00;;;;;;5011906;28;20054;-44
2022/06/16 00:10:04;;;;;;;8.02;4.10;;;22.40;76.20;;;;;;5010775;28;20509;-48
2022/06/16 00:12:30;;;;;;;8.95;3.97;;;22.40;76.60;;;;;;5011067;28;20037;-47
2022/06/16 00:14:56;;;;;;;11.27;3.60;;;22.30;76.70;;;;;;5012533;28;20037;-57
2022/06/16 00:17:21;;;;;;;7.25;3.63;;;22.20;77.00;;;;;;5011917;28;20509;-47
2022/06/16 00:19:47;;;;;;;5.97;4.03;;;22.20;77.40;;;;;;5012526;28;20033;-47
2022/06/16 00:22:12;;;;;;;5.95;4.05;;;22.10;77.80;;;;;;5012634;28;20026;-47
2022/06/16 00:24:38;;;;;;;6.15;4.20;;;22.10;77.90;;;;;;5012591;28;20026;-49
2022/06/16 00:27:04;;;;;;;9.35;3.60;;;22.00;77.90;;;;;;5012344;28;20038;-44
2022/06/16 00:29:29;;;;;;;5.93;3.42;;;22.00;78.00;;;;;;5012677;28;20513;-44
2022/06/16 00:31:55;;;;;;;5.28;3.17;;;22.00;78.00;;;;;;5013219;28;20100;-47
2022/06/16 00:34:20;;;;;;;4.95;3.47;;;22.00;78.00;;;;;;5013541;28;20030;-54
2022/06/16 00:36:46;;;;;;;4.93;3.47;;;22.00;78.20;;;;;;5012403;28;20041;-44
2022/06/16 00:39:12;;;;;;;4.53;3.30;;;21.90;78.80;;;;;;5011585;28;20021;-47
2022/06/16 00:41:37;;;;;;;8.88;3.30;;;21.80;79.40;;;;;;5012631;28;20034;-46
2022/06/16 00:44:25;;;;;;;5.82;2.88;;;21.70;79.70;;;;;;5012233;28;20026;-51
2022/06/16 00:46:51;;;;;;;4.28;2.90;;;21.70;79.60;;;;;;5012002;28;20068;-49
2022/06/16 00:49:16;;;;;;;8.25;3.15;;;21.70;79.10;;;;;;5010971;28;20061;-46
2022/06/16 00:51:50;;;;;;;6.38;2.83;;;21.70;79.10;;;;;;5012344;28;20104;-49
2022/06/16 00:54:43;;;;;;;7.18;3.22;;;21.70;78.40;;;;;;5010664;28;20069;-46
2022/06/16 00:57:14;;;;;;;5.65;3.15;;;21.70;78.50;;;;;;5011656;28;20041;-48
2022/06/16 00:59:40;;;;;;;4.88;2.80;;;21.70;78.40;;;;;;5012125;28;20026;-48
2022/06/16 01:02:08;;;;;;;4.60;3.00;;;21.70;78.60;;;;;;5010760;28;20029;-43
2022/06/16 01:04:52;;;;;;;3.40;3.10;;;21.70;78.90;;;;;;5011717;28;20057;-46
2022/06/16 01:07:29;;;;;;;5.22;2.80;;;21.70;78.90;;;;;;5012107;28;20425;-48
2022/06/16 01:09:55;;;;;;;7.22;3.10;;;21.60;78.60;;;;;;5011852;28;20528;-52
2022/06/16 01:15:49;;;;;;;5.60;3.20;;;21.60;78.60;;;;;;4999805;28;20124;-47
2022/06/16 01:18:23;;;;;;;8.55;3.22;;;21.40;79.60;;;;;;5011444;28;20030;-48
2022/06/16 01:20:55;;;;;;;7.80;3.30;;;21.20;80.40;;;;;;5011306;28;20032;-46
2022/06/16 01:23:52;;;;;;;5.25;3.60;;;21.00;82.20;;;;;;5011804;28;20036;-47
2022/06/16 01:26:38;;;;;;;4.38;3.33;;;20.90;84.10;;;;;;5012065;28;20025;-52
2022/06/16 01:29:30;;;;;;;4.93;3.67;;;20.80;85.10;;;;;;5011771;28;20030;-50
2022/06/16 01:32:22;;;;;;;9.60;3.60;;;20.70;86.50;;;;;;5011794;28;20040;-48
2022/06/16 01:35:07;;;;;;;7.95;3.63;;;20.60;86.90;;;;;;5011775;28;20026;-49
2022/06/16 01:37:51;;;;;;;6.80;3.47;;;20.50;87.00;;;;;;5011371;28;20038;-53
2022/06/16 01:40:31;;;;;;;4.25;3.13;;;20.60;87.40;;;;;;5011763;28;20048;-48
2022/06/16 01:43:12;;;;;;;5.50;3.55;;;20.50;87.40;;;;;;5011666;28;20026;-48
2022/06/16 01:46:03;;;;;;;6.90;3.25;;;20.50;87.70;;;;;;5010337;28;20025;-54
2022/06/16 01:48:30;;;;;;;6.32;3.30;;;20.50;87.00;;;;;;5009655;28;20053;-48
2022/06/16 01:51:02;;;;;;;4.63;3.50;;;20.50;87.20;;;;;;5011221;28;20068;-48
2022/06/16 01:53:39;;;;;;;6.18;3.35;;;20.50;87.40;;;;;;5011224;28;20030;-47
2022/06/16 01:56:15;;;;;;;3.63;2.92;;;20.50;87.60;;;;;;5011277;28;20041;-51
2022/06/16 01:58:45;;;;;;;4.00;3.42;;;20.40;87.80;;;;;;5010939;28;20126;-46
2022/06/16 02:01:14;;;;;;;5.25;3.42;;;20.50;88.70;;;;;;5011317;28;20486;-50
2022/06/16 02:03:46;;;;;;;3.60;2.97;;;20.40;88.80;;;;;;5011194;28;20101;-49
2022/06/16 02:06:28;;;;;;;4.78;2.92;;;20.40;88.70;;;;;;5011273;28;20509;-48
2022/06/16 02:08:59;;;;;;;5.20;3.58;;;20.40;88.70;;;;;;5011144;28;20408;-46
2022/06/16 02:11:30;;;;;;;7.03;3.78;;;20.40;88.40;;;;;;5011113;28;20033;-53
2022/06/16 02:14:09;;;;;;;5.50;3.17;;;20.30;88.50;;;;;;5011286;28;20164;-48
2022/06/16 02:16:37;;;;;;;6.72;3.58;;;20.20;88.90;;;;;;5011028;28;20091;-45
2022/06/16 02:19:07;;;;;;;10.88;3.58;;;20.20;89.70;;;;;;5010931;28;20018;-49
2022/06/16 02:21:47;;;;;;;4.95;3.30;;;20.20;89.70;;;;;;5011086;28;20022;-48
2022/06/16 02:24:16;;;;;;;12.50;4.05;;;20.20;90.10;;;;;;5011478;28;20414;-50
2022/06/16 02:26:42;;;;;;;5.30;3.13;;;20.10;90.60;;;;;;5010852;28;20124;-49
2022/06/16 02:29:29;;;;;;;4.00;3.60;;;20.10;90.60;;;;;;5010742;28;20080;-47
2022/06/16 02:32:24;;;;;;;5.38;3.15;;;20.00;90.60;;;;;;5010614;28;20100;-46
2022/06/16 02:34:58;;;;;;;6.50;3.67;;;20.00;91.00;;;;;;5014484;28;20045;-48
2022/06/16 02:37:47;;;;;;;9.47;4.03;;;20.00;90.90;;;;;;5014138;28;20076;-50
2022/06/16 02:40:34;;;;;;;4.45;3.53;;;20.00;90.50;;;;;;5013884;28;20584;-46
2022/06/16 02:43:26;;;;;;;5.45;3.53;;;20.10;88.70;;;;;;5014593;28;20028;-47
2022/06/16 02:46:19;;;;;;;8.15;3.70;;;20.20;87.80;;;;;;5014470;28;20022;-49
2022/06/16 02:48:57;;;;;;;6.05;3.67;;;20.30;87.50;;;;;;5014310;28;20076;-48
2022/06/16 02:51:42;;;;;;;9.27;2.90;;;20.30;87.00;;;;;;5014255;28;20049;-47
2022/06/16 02:54:33;;;;;;;4.78;3.40;;;20.30;87.40;;;;;;5014302;28;20025;-46
2022/06/16 02:57:09;;;;;;;4.68;3.53;;;20.30;89.40;;;;;;5012561;28;20172;-46
2022/06/16 02:59:55;;;;;;;4.10;3.53;;;20.30;90.80;;;;;;5014751;28;20529;-49
2022/06/16 03:02:23;;;;;;;3.70;3.15;;;20.20;90.50;;;;;;5013536;28;20071;-53
2022/06/16 03:04:51;;;;;;;3.63;3.30;;;20.20;90.60;;;;;;5014645;28;20481;-49
2022/06/16 03:07:17;;;;;;;4.15;3.30;;;20.20;90.80;;;;;;5014102;28;20033;-47
2022/06/16 03:09:44;;;;;;;5.18;3.10;;;20.20;90.90;;;;;;5014396;28;20026;-48
2022/06/16 03:12:11;;;;;;;7.65;3.63;;;20.00;91.50;;;;;;5014396;28;20030;-53
2022/06/16 03:14:37;;;;;;;6.47;3.00;;;20.10;91.50;;;;;;5014283;28;20030;-51
2022/06/16 03:17:05;;;;;;;4.55;3.25;;;20.00;91.50;;;;;;5013970;28;20033;-47
2022/06/16 03:19:30;;;;;;;5.22;3.78;;;19.90;91.80;;;;;;5013994;28;20040;-48
2022/06/16 03:21:56;;;;;;;5.93;3.55;;;19.90;91.80;;;;;;5014071;28;20097;-48
2022/06/16 03:24:22;;;;;;;6.45;3.45;;;19.90;92.00;;;;;;5013043;28;20112;-51
2022/06/16 03:26:48;;;;;;;8.18;4.85;;;19.80;92.30;;;;;;5013811;28;20037;-54
2022/06/16 03:29:14;;;;;;;6.75;4.05;;;19.80;92.60;;;;;;5014146;28;20029;-47
2022/06/16 03:31:40;;;;;;;5.70;4.10;;;19.80;92.50;;;;;;5013587;28;20022;-51
2022/06/16 03:34:06;;;;;;;6.88;4.13;;;19.80;92.30;;;;;;5014689;28;20060;-46
2022/06/16 03:36:32;;;;;;;6.78;4.18;;;19.80;92.20;;;;;;5014182;28;20096;-48
2022/06/16 03:38:58;;;;;;;6.70;4.75;;;19.80;92.40;;;;;;5013424;28;20022;-51
2022/06/16 03:41:23;;;;;;;11.02;4.22;;;19.80;92.30;;;;;;5012540;28;20080;-52
2022/06/16 03:43:49;;;;;;;5.53;3.85;;;19.90;92.30;;;;;;5013262;28;20394;-50
2022/06/16 03:46:16;;;;;;;4.45;4.05;;;19.80;92.40;;;;;;5013154;28;20076;-48
2022/06/16 03:48:42;;;;;;;10.73;4.13;;;19.80;92.50;;;;;;5012761;28;20018;-48
2022/06/16 03:51:09;;;;;;;9.32;3.83;;;19.90;92.60;;;;;;5013242;28;20394;-48
2022/06/16 03:53:35;;;;;;;13.80;4.45;;;19.80;92.20;;;;;;5012892;28;20034;-51
2022/06/16 03:56:02;;;;;;;6.88;4.00;;;19.80;92.30;;;;;;5013067;28;20026;-45
2022/06/16 03:58:27;;;;;;;8.25;3.90;;;19.80;92.30;;;;;;5012616;28;20030;-47
2022/06/16 04:00:53;;;;;;;5.28;4.53;;;19.80;92.30;;;;;;5012921;28;20052;-48
2022/06/16 04:06:02;;;;;;;5.78;4.32;;;19.80;92.50;;;;;;5013155;28;20161;-47
2022/06/16 04:08:29;;;;;;;6.00;3.80;;;19.80;92.70;;;;;;5012527;28;20096;-48
2022/06/16 04:10:54;;;;;;;5.50;3.85;;;19.80;92.80;;;;;;5012856;28;20037;-50
2022/06/16 04:13:20;;;;;;;7.88;5.07;;;19.80;92.60;;;;;;5012577;28;20018;-48
2022/06/16 04:15:46;;;;;;;5.47;4.45;;;19.70;92.60;;;;;;5012771;28;20054;-50
2022/06/16 04:18:11;;;;;;;6.03;4.03;;;19.80;93.00;;;;;;5012206;28;20103;-49
2022/06/16 04:20:37;;;;;;;5.65;4.07;;;19.70;93.00;;;;;;5012662;28;20124;-47
2022/06/16 04:23:03;;;;;;;5.97;4.25;;;19.70;93.30;;;;;;5012685;28;20481;-51
2022/06/16 04:25:31;;;;;;;7.30;4.32;;;19.70;93.40;;;;;;5012581;28;20026;-46
2022/06/16 04:27:59;;;;;;;8.18;4.38;;;19.70;93.20;;;;;;5012022;28;20459;-53
2022/06/16 04:30:25;;;;;;;14.70;4.10;;;19.80;93.50;;;;;;5012542;28;20022;-52
2022/06/16 04:32:50;;;;;;;5.20;3.58;;;19.80;93.80;;;;;;5012352;28;20032;-47
2022/06/16 04:35:16;;;;;;;6.00;4.10;;;19.90;93.90;;;;;;5012754;28;20551;-48
2022/06/16 04:37:42;;;;;;;5.78;3.97;;;20.00;93.80;;;;;;5011842;28;20027;-48
2022/06/16 04:40:09;;;;;;;4.50;4.00;;;20.00;93.30;;;;;;5012683;28;20375;-50
2022/06/16 04:42:35;;;;;;;6.05;4.40;;;20.00;93.00;;;;;;5012194;28;20543;-48
2022/06/16 04:45:01;;;;;;;5.40;4.00;;;20.00;92.20;;;;;;5012274;28;20030;-45
2022/06/16 04:47:26;;;;;;;7.72;3.92;;;19.90;92.70;;;;;;5011978;28;20442;-53
2022/06/16 04:49:52;;;;;;;6.53;4.00;;;19.80;92.50;;;;;;5012226;28;20104;-51
2022/06/16 04:52:18;;;;;;;5.18;4.18;;;19.80;92.80;;;;;;5012146;28;20026;-49
2022/06/16 04:54:48;;;;;;;7.25;3.78;;;19.80;92.30;;;;;;5022291;22;20072;-49
2022/06/16 04:57:14;;;;;;;7.57;3.55;;;19.90;92.20;;;;;;5026180;28;20032;-49
2022/06/16 04:59:40;;;;;;;5.93;3.58;;;20.10;92.10;;;;;;5011906;28;20025;-46
2022/06/16 05:02:05;;;;;;;9.02;3.63;;;20.40;91.90;;;;;;5010955;28;20026;-50
2022/06/16 05:04:32;;;;;;;4.78;3.00;;;20.70;91.50;;;;;;5005993;28;20030;-47
2022/06/16 05:06:58;;;;;;;6.35;3.70;;;21.00;91.00;;;;;;5016760;28;20029;-44
2022/06/16 05:09:25;;;;;;;4.72;3.60;;;21.30;89.80;;;;;;5025902;28;20033;-54
2022/06/16 05:11:50;;;;;;;3.85;3.20;;;21.40;90.40;;;;;;5030978;28;20033;-45
2022/06/16 05:14:15;;;;;;;5.07;3.40;;;21.50;90.90;;;;;;5030426;28;20032;-44
2022/06/16 05:16:41;;;;;;;7.32;2.85;;;21.70;91.10;;;;;;5024937;28;20030;-47
2022/06/16 05:19:07;;;;;;;7.53;3.10;;;21.70;87.80;;;;;;5023791;28;20084;-45
2022/06/16 05:21:32;;;;;;;5.90;2.80;;;21.70;87.30;;;;;;5029864;28;20021;-47
2022/06/16 05:23:58;;;;;;;6.53;2.88;;;21.70;87.20;;;;;;5031224;28;20025;-46
2022/06/16 05:26:24;;;;;;;7.25;3.42;;;21.70;87.20;;;;;;5031515;28;20022;-46
2022/06/16 05:28:49;;;;;;;2.63;2.42;;;21.70;87.00;;;;;;5030665;28;20036;-52
2022/06/16 05:31:15;;;;;;;6.45;2.50;;;21.50;86.50;;;;;;5024400;28;20043;-48
2022/06/16 05:33:41;;;;;;;4.47;2.70;;;21.40;86.50;;;;;;5011464;28;20502;-45
2022/06/16 05:36:10;;;;;;;6.07;2.60;;;21.30;87.20;;;;;;5020032;28;20113;-47
2022/06/16 05:38:35;;;;;;;6.72;2.70;;;21.30;87.30;;;;;;5033494;28;20075;-48
2022/06/16 05:41:06;;;;;;;4.60;2.72;;;21.40;88.20;;;;;;5033314;28;20533;-47
2022/06/16 05:43:33;;;;;;;6.25;3.10;;;21.40;86.60;;;;;;5031221;28;20052;-47
2022/06/16 05:45:59;;;;;;;6.82;3.47;;;21.50;89.60;;;;;;5025892;28;20021;-48
2022/06/16 05:48:25;;;;;;;5.95;2.55;;;21.60;90.40;;;;;;5029078;28;20509;-46
2022/06/16 05:50:51;;;;;;;4.05;2.30;;;21.70;89.70;;;;;;5024104;28;20034;-48
2022/06/16 05:53:17;;;;;;;4.32;2.75;;;21.70;86.80;;;;;;5011307;28;20565;-50
2022/06/16 05:55:42;;;;;;;12.50;2.97;;;21.70;86.30;;;;;;5017596;28;20096;-48
2022/06/16 05:58:08;;;;;;;3.00;2.05;;;21.60;86.10;;;;;;5021414;28;20034;-44
2022/06/16 06:00:34;;;;;;;4.57;2.72;;;21.60;86.80;;;;;;5030409;28;20501;-46
2022/06/16 06:03:01;;;;;;;7.90;2.50;;;21.60;86.40;;;;;;5030696;28;20024;-45
2022/06/16 06:05:28;;;;;;;5.72;2.10;;;21.70;84.90;;;;;;5031278;28;20060;-47
2022/06/16 06:16:25;;;;;;;5.55;2.20;;;23.90;79.80;;;;;;5034489;28;20036;-46
2022/06/16 06:18:55;;;;;;;3.05;2.35;;;24.50;78.20;;;;;;5034368;28;20477;-44
2022/06/16 06:21:58;;;;;;;5.38;2.60;;;25.00;75.10;;;;;;5034783;28;20040;-46
2022/06/16 06:24:07;;;;;;;4.75;2.30;;;25.60;73.10;;;;;;5034374;28;20065;-45
2022/06/16 06:26:33;;;;;;;6.68;2.20;;;25.30;73.10;;;;;;5034557;28;20087;-44
2022/06/16 06:28:58;;;;;;;5.05;2.45;;;25.30;73.80;;;;;;5033939;28;20116;-45
2022/06/16 06:31:24;;;;;;;4.30;1.83;;;25.60;72.80;;;;;;5033246;28;20026;-44
2022/06/16 06:33:49;;;;;;;6.00;2.40;;;26.20;72.50;;;;;;5034358;28;20025;-45
2022/06/16 06:36:15;;;;;;;4.22;2.03;;;26.60;71.80;;;;;;5034389;28;20025;-46
2022/06/16 06:38:40;;;;;;;6.60;2.03;;;27.10;69.20;;;;;;5034158;28;20028;-45
2022/06/16 06:41:07;;;;;;;1.75;1.65;;;27.50;69.30;;;;;;5034721;28;20556;-44
2022/06/16 06:43:32;;;;;;;3.40;1.63;;;28.00;66.60;;;;;;5034254;28;20080;-49
2022/06/16 06:45:58;;;;;;;10.13;1.88;;;28.10;66.60;;;;;;5034303;28;20026;-45
2022/06/16 06:48:23;;;;;;;9.38;2.10;;;28.20;67.10;;;;;;5033934;28;20017;-45
2022/06/16 06:50:49;;;;;;;2.83;1.80;;;28.40;65.50;;;;;;5034401;28;20064;-44
2022/06/16 06:53:14;;;;;;;4.78;1.90;;;28.50;65.40;;;;;;5034478;28;20052;-49
2022/06/16 06:55:43;;;;;;;4.63;1.83;;;28.50;64.40;;;;;;5034170;28;20501;-44
2022/06/16 06:58:21;;;;;;;3.65;1.42;;;28.90;64.30;;;;;;5033850;28;20025;-43
2022/06/16 07:00:51;;;;;;;2.97;1.85;;;29.20;64.30;;;;;;5034296;28;20557;-48
2022/06/16 07:03:17;;;;;;;7.95;2.05;;;30.10;63.90;;;;;;5034276;28;20420;-46
2022/06/16 07:05:43;;;;;;;4.90;1.73;;;31.10;61.90;;;;;;5034167;28;20477;-45
2022/06/16 07:08:08;;;;;;;5.32;2.05;;;31.50;61.30;;;;;;5033765;28;20017;-46
2022/06/16 07:10:34;;;;;;;4.70;2.08;;;32.00;59.10;;;;;;5033856;28;20033;-44
2022/06/16 07:12:59;;;;;;;3.65;1.95;;;32.50;59.30;;;;;;5033986;28;20022;-44
2022/06/16 07:15:25;;;;;;;5.28;1.50;;;32.80;58.30;;;;;;5033748;28;20504;-48
2022/06/16 07:17:50;;;;;;;2.72;1.60;;;31.60;59.30;;;;;;5032759;28;20033;-46
2022/06/16 07:20:16;;;;;;;2.13;1.63;;;31.90;59.30;;;;;;5033995;28;20024;-45
2022/06/16 07:22:44;;;;;;;3.17;1.70;;;32.80;59.10;;;;;;5032918;28;20045;-45
2022/06/16 07:25:09;;;;;;;2.17;1.50;;;32.70;57.00;;;;;;5032200;28;20433;-45
2022/06/16 07:27:35;;;;;;;3.75;1.83;;;31.70;58.70;;;;;;5019147;28;20030;-45
2022/06/16 07:30:01;;;;;;;4.68;1.83;;;31.60;59.10;;;;;;5014888;28;20026;-43
2022/06/16 07:32:26;;;;;;;3.63;1.90;;;31.60;59.30;;;;;;5033901;28;20061;-43
2022/06/16 07:34:52;;;;;;;4.80;2.38;;;31.50;58.80;;;;;;5033683;28;20099;-43
2022/06/16 07:37:18;;;;;;;3.17;1.60;;;32.10;58.60;;;;;;5033321;28;20474;-45
2022/06/16 07:39:44;;;;;;;6.15;1.85;;;32.90;57.60;;;;;;5032131;28;20025;-43
2022/06/16 07:42:10;;;;;;;7.10;1.85;;;33.50;57.30;;;;;;5033512;28;20112;-42
2022/06/16 07:44:36;;;;;;;3.08;1.80;;;34.50;56.10;;;;;;5033030;28;20470;-45
2022/06/16 07:47:03;;;;;;;3.22;1.55;;;35.00;55.80;;;;;;5032090;28;20029;-47
2022/06/16 07:49:29;;;;;;;4.72;1.80;;;35.10;54.80;;;;;;5032629;28;20025;-43
2022/06/16 07:51:57;;;;;;;5.32;1.85;;;35.40;54.70;;;;;;5030834;28;20033;-45
2022/06/16 07:54:23;;;;;;;2.20;1.35;;;35.80;53.70;;;;;;5013212;28;20084;-44
2022/06/16 07:56:51;;;;;;;8.73;1.73;;;35.70;54.00;;;;;;5012928;28;20394;-47
2022/06/16 07:59:16;;;;;;;3.30;1.42;;;36.10;53.60;;;;;;5025553;28;20025;-47
2022/06/16 08:01:42;;;;;;;4.20;1.73;;;36.10;53.60;;;;;;5032986;28;20044;-45
2022/06/16 08:04:07;;;;;;;5.53;1.90;;;35.50;52.40;;;;;;5025870;28;20026;-46
2022/06/16 08:06:35;;;;;;;3.13;1.92;;;35.90;52.40;;;;;;5017917;28;20068;-48
2022/06/16 08:09:01;;;;;;;4.85;1.52;;;35.40;51.90;;;;;;5025870;28;20104;-46
2022/06/16 08:14:11;;;;;;;;;;;33.80;52.60;;;;;;5026170;28;20033;-44
2022/06/16 08:16:42;;;;;;;6.10;1.83;;;32.10;54.90;;;;;;5033316;28;19913;-44
2022/06/16 08:19:07;;;;;;;7.05;1.67;;;32.10;55.70;;;;;;5029923;28;20112;-45
2022/06/16 08:21:33;;;;;;;5.35;1.80;;;32.30;55.50;;;;;;5013678;28;20084;-45
2022/06/16 08:23:59;;;;;;;5.50;2.20;;;32.30;55.30;;;;;;5013245;28;20033;-45
2022/06/16 08:26:25;;;;;;;6.72;1.80;;;32.20;55.80;;;;;;5012387;28;20029;-46
2022/06/16 08:28:53;;;;;;;3.47;1.90;;;32.00;55.90;;;;;;5011078;28;20129;-44
2022/06/16 08:31:21;;;;;;;2.10;1.40;;;31.70;56.40;;;;;;5015965;28;20021;-48
2022/06/16 08:33:48;;;;;;;1.75;1.58;;;31.10;57.30;;;;;;5032706;28;20021;-45
2022/06/16 08:36:14;;;;;;;4.55;2.00;;;30.80;57.80;;;;;;5032240;28;20025;-49
2022/06/16 08:38:39;;;;;;;5.28;2.33;;;30.40;58.10;;;;;;5030315;28;20029;-44
2022/06/16 08:41:12;;;;;;;3.58;1.63;;;30.20;58.30;;;;;;5031960;28;20038;-44
2022/06/16 08:44:04;;;;;;;2.95;1.65;;;29.90;58.10;;;;;;5029382;28;20029;-44
2022/06/16 08:46:39;;;;;;;2.28;1.67;;;29.60;58.60;;;;;;5012448;28;20026;-45
2022/06/16 08:49:39;;;;;;;3.58;1.85;;;29.50;58.10;;;;;;5012291;28;20030;-45
2022/06/16 08:52:12;;;;;;;5.38;1.80;;;29.20;58.20;;;;;;5012349;28;20509;-46
2022/06/16 08:54:58;;;;;;;1.88;1.55;;;28.60;59.60;;;;;;5012202;28;20088;-47
2022/06/16 08:58:12;;;;;;;4.43;1.80;;;28.40;60.10;;;;;;5027545;28;20032;-44
2022/06/16 09:00:43;;;;;;;4.45;2.08;;;28.40;59.70;;;;;;4990090;28;20046;-46
2022/06/16 09:03:20;;;;;;;5.10;2.35;;;28.10;61.00;;;;;;5017777;28;20034;-50
2022/06/16 09:06:14;;;;;;;4.25;2.13;;;28.20;61.30;;;;;;5012936;28;20057;-46
2022/06/16 09:08:54;;;;;;;4.10;1.83;;;28.50;61.10;;;;;;5022997;28;20045;-48
2022/06/16 09:11:32;;;;;;;4.78;2.17;;;28.70;61.10;;;;;;5029223;28;20026;-49
2022/06/16 09:14:15;;;;;;;4.65;2.33;;;28.70;61.10;;;;;;5010900;28;20558;-48
2022/06/16 09:17:03;;;;;;;4.07;2.08;;;28.90;61.10;;;;;;5016424;28;20032;-48
2022/06/16 09:19:49;;;;;;;6.38;2.08;;;29.00;61.10;;;;;;5011029;28;20485;-48
2022/06/16 09:22:15;;;;;;;9.27;2.30;;;28.90;61.20;;;;;;5011968;28;20389;-51
2022/06/16 09:25:06;;;;;;;2.45;1.80;;;28.90;60.70;;;;;;5026969;28;20026;-48
2022/06/16 09:27:58;;;;;;;5.47;1.95;;;29.00;61.90;;;;;;5023254;28;20104;-48
2022/06/16 09:30:31;;;;;;;3.58;2.50;;;29.20;61.80;;;;;;5029604;28;20083;-47
2022/06/16 09:33:02;;;;;;;4.63;2.00;;;29.20;60.10;;;;;;5020681;28;20452;-51
2022/06/16 09:35:37;;;;;;;2.97;1.95;;;29.00;60.30;;;;;;5030149;28;20025;-46
2022/06/16 09:38:23;;;;;;;6.30;2.25;;;28.70;60.40;;;;;;5018698;28;20512;-50
2022/06/16 09:40:52;;;;;;;3.78;2.55;;;28.40;61.50;;;;;;5012971;28;20041;-47
2022/06/16 09:43:30;;;;;;;4.43;2.60;;;28.10;61.20;;;;;;5015929;28;20370;-49
2022/06/16 09:46:17;;;;;;;5.13;1.90;;;28.00;61.90;;;;;;5014572;28;20026;-46
2022/06/16 09:48:52;;;;;;;7.88;2.17;;;28.00;61.70;;;;;;5030314;28;20493;-49
2022/06/16 09:51:25;;;;;;;;;;;27.90;62.10;;;;;;5035942;28;20083;-48
2022/06/16 09:53:53;;;;;;;4.00;2.72;;;27.80;62.50;;;;;;5025806;28;19913;-48
2022/06/16 09:56:28;;;;;;;7.97;2.10;;;27.90;62.80;;;;;;5028965;28;20108;-45
2022/06/16 09:58:59;;;;;;;;;;;28.10;61.80;;;;;;5034782;28;20429;-48
2022/06/16 10:01:28;;;;;;;5.60;1.95;;;28.00;61.50;;;;;;5034266;28;20284;-50
2022/06/16 10:04:00;;;;;;;4.15;1.88;;;28.10;63.10;;;;;;5029501;28;20029;-52
2022/06/16 10:06:53;;;;;;;9.27;1.88;;;27.90;62.70;;;;;;5016161;28;20367;-51
2022/06/16 10:09:24;;;;;;;6.05;2.60;;;28.00;62.50;;;;;;5031869;28;20465;-52
2022/06/16 10:12:12;;;;;;;7.43;2.35;;;28.00;61.80;;;;;;5034399;28;20087;-48
2022/06/16 10:14:44;;;;;;;6.60;2.20;;;27.90;62.60;;;;;;5034970;28;20025;-48
2022/06/16 10:17:12;;;;;;;5.40;2.53;;;27.70;63.30;;;;;;5034833;28;20057;-49
2022/06/16 10:19:43;;;;;;;2.35;2.15;;;27.70;63.00;;;;;;5034965;28;20017;-47
2022/06/16 10:22:10;;;;;;;3.35;2.35;;;27.70;62.30;;;;;;5014845;28;20486;-49
2022/06/16 10:24:41;;;;;;;7.60;3.88;;;27.50;62.80;;;;;;5015056;28;20169;-48
2022/06/16 10:27:10;;;;;;;5.80;2.05;;;27.30;63.70;;;;;;5015274;28;20037;-50
2022/06/16 10:29:36;;;;;;;4.72;2.13;;;27.30;62.80;;;;;;5014819;28;20045;-47
2022/06/16 10:32:03;;;;;;;4.38;2.20;;;27.10;63.10;;;;;;5015325;28;20029;-50
2022/06/16 10:34:34;;;;;;;5.10;2.30;;;27.10;63.30;;;;;;5026124;28;20040;-47
2022/06/16 10:37:23;;;;;;;3.47;2.42;;;27.20;63.30;;;;;;5034436;28;20032;-48
2022/06/16 10:39:54;;;;;;;3.85;1.77;;;27.30;63.80;;;;;;5029171;28;20104;-50
2022/06/16 10:42:28;;;;;;;2.85;1.98;;;27.40;63.80;;;;;;5034141;28;20021;-50
2022/06/16 10:44:59;;;;;;;4.68;2.10;;;27.60;64.00;;;;;;5020055;28;20060;-49
2022/06/16 10:47:34;;;;;;;2.80;2.28;;;27.60;64.60;;;;;;5014867;28;20025;-50
2022/06/16 10:50:00;;;;;;;;;;;27.70;64.30;;;;;;5034915;28;20025;-48
2022/06/16 10:52:28;;;;;;;4.20;1.90;;;27.80;61.70;;;;;;5033214;28;19905;-49
2022/06/16 10:54:59;;;;;;;7.50;2.00;;;28.00;59.80;;;;;;5033432;28;20040;-50
2022/06/16 10:57:31;;;;;;;3.65;2.13;;;27.90;62.30;;;;;;5014307;28;20030;-48
2022/06/16 11:00:10;;;;;;;4.55;2.45;;;27.70;63.60;;;;;;5022684;28;20113;-49
2022/06/16 11:02:50;;;;;;;2.20;2.00;;;27.70;62.50;;;;;;5034306;28;20057;-47
2022/06/16 11:05:17;;;;;;;2.08;1.77;;;27.70;60.90;;;;;;5033274;28;20112;-49
2022/06/16 11:07:44;;;;;;;4.20;1.90;;;27.80;59.30;;;;;;5029184;28;20072;-47
2022/06/16 11:10:14;;;;;;;5.70;1.83;;;27.80;59.50;;;;;;5033539;28;20081;-49
2022/06/16 11:12:44;;;;;;;1.92;1.45;;;27.80;57.80;;;;;;5033617;28;20042;-48
2022/06/16 11:15:29;;;;;;;4.55;1.80;;;27.80;58.70;;;;;;5014343;28;20034;-46
2022/06/16 11:17:58;;;;;;;5.50;1.58;;;27.60;57.50;;;;;;5027122;28;20078;-51
2022/06/16 11:20:34;;;;;;;3.15;1.65;;;27.70;56.50;;;;;;5033571;28;20033;-49
2022/06/16 11:22:59;;;;;;;6.55;1.50;;;27.80;55.20;;;;;;5032811;28;20105;-47
2022/06/16 11:25:37;;;;;;;7.10;1.92;;;27.80;54.80;;;;;;5028146;28;20422;-50
2022/06/16 11:28:12;;;;;;;2.38;1.42;;;27.80;53.50;;;;;;5013839;28;20476;-51
2022/06/16 11:30:50;;;;;;;28.63;17.95;;;27.70;51.80;;;;;;5027944;28;20056;-49
2022/06/16 11:36:43;;;;;;;2.10;1.90;;;27.80;55.30;;;;;;5033183;28;20471;-45
2022/06/16 11:39:28;;;;;;;3.55;1.92;;;27.90;57.00;;;;;;5023414;28;20022;-48
2022/06/16 11:41:55;;;;;;;5.13;2.55;;;27.90;58.60;;;;;;5033406;28;20100;-48
2022/06/16 11:45:01;;;;;;;2.22;1.77;;;27.80;59.30;;;;;;5029776;28;20048;-44
2022/06/16 11:47:42;;;;;;;3.63;2.10;;;27.80;60.20;;;;;;5012805;28;20030;-45
2022/06/16 11:50:25;;;;;;;2.33;1.80;;;27.70;59.40;;;;;;5013236;28;20490;-44
2022/06/16 11:53:07;;;;;;;6.57;2.20;;;27.60;60.50;;;;;;5015099;28;20037;-45
2022/06/16 11:55:45;;;;;;;4.05;2.58;;;27.70;60.50;;;;;;5032527;28;20037;-48
2022/06/16 11:58:20;;;;;;;4.15;2.00;;;27.70;60.20;;;;;;5012663;28;20034;-44
2022/06/16 12:00:57;;;;;;;2.65;2.05;;;27.70;60.10;;;;;;5020265;28;20045;-50
2022/06/16 12:03:49;;;;;;;5.85;1.98;;;27.70;60.10;;;;;;5032509;28;20037;-46
2022/06/16 12:06:54;;;;;;;4.20;1.67;;;27.70;58.80;;;;;;5032866;28;20543;-45
2022/06/16 12:09:55;;;;;;;2.88;1.73;;;27.60;59.40;;;;;;5032501;28;20397;-46
2022/06/16 12:12:26;;;;;;;7.70;2.20;;;27.50;58.70;;;;;;5029956;28;20026;-46
2022/06/16 12:15:15;;;;;;;3.80;1.50;;;27.40;57.80;;;;;;5012644;28;20025;-44
2022/06/16 12:17:48;;;;;;;6.70;2.13;;;27.40;57.50;;;;;;5012405;28;20026;-48
2022/06/16 12:20:32;;;;;;;4.63;1.30;;;27.40;55.50;;;;;;5012543;28;20469;-45
2022/06/16 12:23:14;;;;;;;2.97;1.77;;;27.50;53.90;;;;;;5012757;28;20030;-50
2022/06/16 12:25:52;;;;;;;1.92;1.33;;;27.70;50.60;;;;;;5012929;28;20026;-47
2022/06/16 12:28:36;;;;;;;2.20;1.25;;;27.70;51.00;;;;;;5012457;28;20053;-45
2022/06/16 12:31:16;;;;;;;4.03;1.10;;;27.80;50.30;;;;;;5020728;28;20029;-47
2022/06/16 12:34:04;;;;;;;1.92;1.23;;;27.90;50.80;;;;;;5032667;28;20038;-48
2022/06/16 12:36:40;;;;;;;4.55;1.55;;;27.90;51.90;;;;;;5032731;28;20117;-50
2022/06/16 12:39:44;;;;;;;5.20;1.60;;;27.80;52.70;;;;;;5027111;28;20020;-49
2022/06/16 12:42:14;;;;;;;7.45;1.70;;;27.80;54.00;;;;;;5032355;28;20033;-48
2022/06/16 12:45:02;;;;;;;4.75;1.58;;;27.80;52.80;;;;;;5030241;28;20032;-46
2022/06/16 12:47:35;;;;;;;46.97;36.45;;;27.80;52.20;;;;;;5027818;28;20049;-45
2022/06/16 12:50:13;;;;;;;2.75;2.03;;;27.80;52.80;;;;;;5020873;28;20441;-47
2022/06/16 12:52:55;;;;;;;3.00;1.40;;;27.90;53.30;;;;;;5011574;28;20058;-45
2022/06/16 12:55:39;;;;;;;1.65;1.50;;;27.80;53.40;;;;;;5031086;28;20556;-47
2022/06/16 12:58:22;;;;;;;3.10;1.33;;;27.80;53.60;;;;;;5030617;28;20116;-46
2022/06/16 13:00:52;;;;;;;3.78;1.10;;;27.60;51.90;;;;;;5020357;28;20029;-44
2022/06/16 13:03:25;;;;;;;1.75;1.23;;;27.50;52.90;;;;;;5018193;28;20079;-46
2022/06/16 13:05:53;;;;;;;1.58;1.33;;;27.60;53.30;;;;;;5031256;28;20030;-44
2022/06/16 13:08:20;;;;;;;2.58;1.60;;;27.70;53.20;;;;;;5031091;28;20033;-46
2022/06/16 13:10:51;;;;;;;4.68;1.27;;;27.80;54.00;;;;;;5031729;28;20048;-47
2022/06/16 13:13:24;;;;;;;3.35;1.63;;;27.90;54.30;;;;;;5031424;28;20032;-46
2022/06/16 13:15:54;;;;;;;3.80;1.65;;;27.90;54.50;;;;;;5030515;28;20033;-45
2022/06/16 13:18:32;;;;;;;2.47;1.35;;;27.80;54.00;;;;;;5030641;28;20067;-45
2022/06/16 13:21:05;;;;;;;4.55;1.45;;;27.90;54.00;;;;;;5030573;28;20034;-45
2022/06/16 13:23:35;;;;;;;2.92;1.45;;;27.90;53.20;;;;;;5031266;28;20440;-45
2022/06/16 13:26:25;;;;;;;3.25;1.40;;;27.80;54.00;;;;;;5031443;28;20018;-45
2022/06/16 13:29:15;;;;;;;8.55;4.25;;;27.90;54.20;;;;;;5030864;28;20116;-46
2022/06/16 13:31:43;;;;;;;2.35;1.98;;;27.80;54.60;;;;;;5031572;28;20022;-45
2022/06/16 13:34:37;;;;;;;6.38;1.60;;;27.80;54.20;;;;;;5031161;28;20108;-45